sensor_id;sensor_type;location;lat;lon;timestamp;P1;durP1;ratioP1;P2;durP2;ratioP2
305;SDS011;137;48.578;9.180;2024-03-08T00:01:46;22.03;;;15.70;;
305;SDS011;137;48.578;9.180;2024-03-08T00:04:12;22.30;;;15.00;;
305;SDS011;137;48.578;9.180;2024-03-08T00:06:40;17.37;;;13.57;;
305;SDS011;137;48.578;9.180;2024-03-08T00:09:08;20.67;;;15.40;;
305;SDS011;137;48.578;9.180;2024-03-08T00:11:35;18.13;;;13.90;;
305;SDS011;137;48.578;9.180;2024-03-08T00:14:02;19.03;;;13.73;;
305;SDS011;137;48.578;9.180;2024-03-08T00:16:31;18.83;;;14.20;;
305;SDS011;137;48.578;9.180;2024-03-08T00:19:00;19.20;;;14.17;;
305;SDS011;137;48.578;9.180;2024-03-08T00:21:26;20.40;;;15.63;;
305;SDS011;137;48.578;9.180;2024-03-08T00:23:53;19.13;;;13.37;;
305;SDS011;137;48.578;9.180;2024-03-08T00:26:20;21.93;;;15.97;;
305;SDS011;137;48.578;9.180;2024-03-08T00:28:47;23.57;;;16.10;;
305;SDS011;137;48.578;9.180;2024-03-08T00:31:14;22.67;;;15.57;;
305;SDS011;137;48.578;9.180;2024-03-08T00:33:41;21.17;;;14.70;;
305;SDS011;137;48.578;9.180;2024-03-08T00:36:10;22.20;;;14.67;;
305;SDS011;137;48.578;9.180;2024-03-08T00:38:36;17.17;;;14.07;;
305;SDS011;137;48.578;9.180;2024-03-08T00:41:04;20.87;;;15.90;;
305;SDS011;137;48.578;9.180;2024-03-08T00:43:30;21.67;;;15.13;;
305;SDS011;137;48.578;9.180;2024-03-08T00:45:57;19.87;;;14.13;;
305;SDS011;137;48.578;9.180;2024-03-08T00:48:24;20.40;;;15.37;;
305;SDS011;137;48.578;9.180;2024-03-08T00:50:50;21.70;;;15.70;;
305;SDS011;137;48.578;9.180;2024-03-08T00:53:19;21.40;;;14.80;;
305;SDS011;137;48.578;9.180;2024-03-08T00:55:45;16.90;;;13.10;;
305;SDS011;137;48.578;9.180;2024-03-08T00:58:12;17.70;;;13.37;;
305;SDS011;137;48.578;9.180;2024-03-08T01:00:39;21.97;;;15.40;;
305;SDS011;137;48.578;9.180;2024-03-08T01:03:06;20.70;;;14.17;;
305;SDS011;137;48.578;9.180;2024-03-08T01:05:32;22.60;;;14.30;;
305;SDS011;137;48.578;9.180;2024-03-08T01:08:00;19.17;;;14.70;;
305;SDS011;137;48.578;9.180;2024-03-08T01:10:29;22.13;;;14.50;;
305;SDS011;137;48.578;9.180;2024-03-08T01:12:56;18.30;;;14.17;;
305;SDS011;137;48.578;9.180;2024-03-08T01:15:24;20.67;;;14.20;;
305;SDS011;137;48.578;9.180;2024-03-08T01:17:51;18.73;;;13.87;;
305;SDS011;137;48.578;9.180;2024-03-08T01:20:19;20.27;;;15.30;;
305;SDS011;137;48.578;9.180;2024-03-08T01:22:46;20.70;;;13.77;;
305;SDS011;137;48.578;9.180;2024-03-08T01:25:12;19.13;;;14.30;;
305;SDS011;137;48.578;9.180;2024-03-08T01:27:41;17.70;;;14.00;;
305;SDS011;137;48.578;9.180;2024-03-08T01:30:08;19.40;;;13.07;;
305;SDS011;137;48.578;9.180;2024-03-08T01:32:35;20.13;;;16.60;;
305;SDS011;137;48.578;9.180;2024-03-08T01:35:03;20.40;;;14.00;;
305;SDS011;137;48.578;9.180;2024-03-08T01:37:30;20.63;;;13.90;;
305;SDS011;137;48.578;9.180;2024-03-08T01:39:57;25.27;;;17.60;;
305;SDS011;137;48.578;9.180;2024-03-08T01:42:24;21.40;;;15.70;;
305;SDS011;137;48.578;9.180;2024-03-08T01:44:52;21.57;;;14.63;;
305;SDS011;137;48.578;9.180;2024-03-08T01:47:19;19.57;;;15.53;;
305;SDS011;137;48.578;9.180;2024-03-08T01:49:48;23.13;;;14.47;;
305;SDS011;137;48.578;9.180;2024-03-08T01:52:15;19.80;;;14.73;;
305;SDS011;137;48.578;9.180;2024-03-08T01:54:43;21.23;;;15.57;;
305;SDS011;137;48.578;9.180;2024-03-08T01:57:11;21.23;;;15.77;;
305;SDS011;137;48.578;9.180;2024-03-08T01:59:38;19.50;;;15.27;;
305;SDS011;137;48.578;9.180;2024-03-08T02:02:08;22.17;;;15.00;;
305;SDS011;137;48.578;9.180;2024-03-08T02:04:38;22.23;;;15.47;;
305;SDS011;137;48.578;9.180;2024-03-08T02:07:05;20.43;;;14.33;;
305;SDS011;137;48.578;9.180;2024-03-08T02:09:32;19.43;;;14.97;;
305;SDS011;137;48.578;9.180;2024-03-08T02:11:59;21.90;;;15.97;;
305;SDS011;137;48.578;9.180;2024-03-08T02:14:26;22.17;;;15.27;;
305;SDS011;137;48.578;9.180;2024-03-08T02:16:53;19.57;;;15.00;;
305;SDS011;137;48.578;9.180;2024-03-08T02:19:24;17.90;;;14.70;;
305;SDS011;137;48.578;9.180;2024-03-08T02:21:52;20.27;;;13.97;;
305;SDS011;137;48.578;9.180;2024-03-08T02:24:19;20.33;;;15.57;;
305;SDS011;137;48.578;9.180;2024-03-08T02:26:46;20.80;;;15.90;;
305;SDS011;137;48.578;9.180;2024-03-08T02:29:13;21.30;;;17.10;;
305;SDS011;137;48.578;9.180;2024-03-08T02:31:40;25.63;;;14.87;;
305;SDS011;137;48.578;9.180;2024-03-08T02:34:07;21.37;;;15.57;;
305;SDS011;137;48.578;9.180;2024-03-08T02:36:34;21.00;;;15.17;;
305;SDS011;137;48.578;9.180;2024-03-08T02:39:03;21.80;;;14.40;;
305;SDS011;137;48.578;9.180;2024-03-08T02:41:30;21.37;;;14.30;;
305;SDS011;137;48.578;9.180;2024-03-08T02:43:57;24.13;;;14.90;;
305;SDS011;137;48.578;9.180;2024-03-08T02:46:25;24.77;;;16.40;;
305;SDS011;137;48.578;9.180;2024-03-08T02:48:51;17.30;;;14.57;;
305;SDS011;137;48.578;9.180;2024-03-08T02:51:18;19.00;;;14.30;;
305;SDS011;137;48.578;9.180;2024-03-08T02:53:45;21.67;;;15.27;;
305;SDS011;137;48.578;9.180;2024-03-08T02:56:15;23.07;;;14.83;;
305;SDS011;137;48.578;9.180;2024-03-08T02:58:42;18.33;;;14.23;;
305;SDS011;137;48.578;9.180;2024-03-08T03:01:13;18.27;;;14.40;;
305;SDS011;137;48.578;9.180;2024-03-08T03:03:39;25.30;;;16.47;;
305;SDS011;137;48.578;9.180;2024-03-08T03:06:06;15.43;;;12.17;;
305;SDS011;137;48.578;9.180;2024-03-08T03:08:33;21.03;;;15.37;;
305;SDS011;137;48.578;9.180;2024-03-08T03:11:00;21.50;;;13.57;;
305;SDS011;137;48.578;9.180;2024-03-08T03:13:28;20.17;;;14.53;;
305;SDS011;137;48.578;9.180;2024-03-08T03:15:55;18.83;;;14.03;;
305;SDS011;137;48.578;9.180;2024-03-08T03:18:23;20.07;;;14.27;;
305;SDS011;137;48.578;9.180;2024-03-08T03:20:51;19.27;;;15.07;;
305;SDS011;137;48.578;9.180;2024-03-08T03:23:18;17.47;;;13.83;;
305;SDS011;137;48.578;9.180;2024-03-08T03:25:45;19.10;;;14.53;;
305;SDS011;137;48.578;9.180;2024-03-08T03:28:12;21.57;;;15.40;;
305;SDS011;137;48.578;9.180;2024-03-08T03:30:44;19.23;;;14.60;;
305;SDS011;137;48.578;9.180;2024-03-08T03:33:11;23.50;;;15.43;;
305;SDS011;137;48.578;9.180;2024-03-08T03:35:40;23.17;;;16.37;;
305;SDS011;137;48.578;9.180;2024-03-08T03:38:08;23.67;;;16.50;;
305;SDS011;137;48.578;9.180;2024-03-08T03:40:34;19.70;;;13.83;;
305;SDS011;137;48.578;9.180;2024-03-08T03:45:33;17.17;;;12.00;;
305;SDS011;137;48.578;9.180;2024-03-08T03:48:02;21.37;;;14.80;;
305;SDS011;137;48.578;9.180;2024-03-08T03:50:30;21.87;;;14.73;;
305;SDS011;137;48.578;9.180;2024-03-08T03:52:59;17.40;;;13.60;;
305;SDS011;137;48.578;9.180;2024-03-08T03:55:26;16.97;;;13.97;;
305;SDS011;137;48.578;9.180;2024-03-08T03:57:53;18.83;;;15.10;;
305;SDS011;137;48.578;9.180;2024-03-08T04:00:20;22.20;;;14.60;;
305;SDS011;137;48.578;9.180;2024-03-08T04:02:47;23.20;;;14.93;;
305;SDS011;137;48.578;9.180;2024-03-08T04:05:15;15.93;;;13.60;;
305;SDS011;137;48.578;9.180;2024-03-08T04:07:42;19.30;;;14.90;;
305;SDS011;137;48.578;9.180;2024-03-08T04:10:10;26.13;;;14.63;;
305;SDS011;137;48.578;9.180;2024-03-08T04:12:37;21.37;;;15.40;;
305;SDS011;137;48.578;9.180;2024-03-08T04:15:04;18.87;;;15.43;;
305;SDS011;137;48.578;9.180;2024-03-08T04:17:32;22.83;;;15.53;;
305;SDS011;137;48.578;9.180;2024-03-08T04:20:00;18.93;;;14.23;;
305;SDS011;137;48.578;9.180;2024-03-08T04:22:31;27.80;;;17.00;;
305;SDS011;137;48.578;9.180;2024-03-08T04:25:00;21.67;;;15.80;;
305;SDS011;137;48.578;9.180;2024-03-08T04:27:27;23.57;;;13.03;;
305;SDS011;137;48.578;9.180;2024-03-08T04:29:54;23.47;;;16.13;;
305;SDS011;137;48.578;9.180;2024-03-08T04:32:22;18.90;;;14.27;;
305;SDS011;137;48.578;9.180;2024-03-08T04:34:48;20.27;;;13.00;;
305;SDS011;137;48.578;9.180;2024-03-08T04:37:15;18.83;;;14.10;;
305;SDS011;137;48.578;9.180;2024-03-08T04:39:44;20.97;;;15.63;;
305;SDS011;137;48.578;9.180;2024-03-08T04:42:12;18.90;;;14.60;;
305;SDS011;137;48.578;9.180;2024-03-08T04:44:39;19.90;;;14.33;;
305;SDS011;137;48.578;9.180;2024-03-08T04:47:06;23.20;;;14.43;;
305;SDS011;137;48.578;9.180;2024-03-08T04:49:33;22.87;;;14.33;;
305;SDS011;137;48.578;9.180;2024-03-08T04:52:00;18.80;;;13.57;;
305;SDS011;137;48.578;9.180;2024-03-08T04:54:28;20.37;;;14.07;;
305;SDS011;137;48.578;9.180;2024-03-08T04:56:57;20.37;;;14.43;;
305;SDS011;137;48.578;9.180;2024-03-08T04:59:25;20.63;;;13.63;;
305;SDS011;137;48.578;9.180;2024-03-08T05:01:52;20.87;;;14.20;;
305;SDS011;137;48.578;9.180;2024-03-08T05:04:18;24.70;;;16.50;;
305;SDS011;137;48.578;9.180;2024-03-08T05:06:45;22.33;;;15.30;;
305;SDS011;137;48.578;9.180;2024-03-08T05:09:12;19.60;;;14.57;;
305;SDS011;137;48.578;9.180;2024-03-08T05:11:40;20.20;;;14.77;;
305;SDS011;137;48.578;9.180;2024-03-08T05:14:16;21.27;;;14.83;;
305;SDS011;137;48.578;9.180;2024-03-08T05:16:45;20.47;;;16.20;;
305;SDS011;137;48.578;9.180;2024-03-08T05:19:13;20.40;;;14.50;;
305;SDS011;137;48.578;9.180;2024-03-08T05:21:41;21.43;;;14.90;;
305;SDS011;137;48.578;9.180;2024-03-08T05:24:08;18.73;;;14.10;;
305;SDS011;137;48.578;9.180;2024-03-08T05:26:35;21.93;;;15.73;;
305;SDS011;137;48.578;9.180;2024-03-08T05:29:02;25.47;;;17.40;;
305;SDS011;137;48.578;9.180;2024-03-08T05:31:30;27.00;;;17.17;;
305;SDS011;137;48.578;9.180;2024-03-08T05:34:04;20.27;;;14.80;;
305;SDS011;137;48.578;9.180;2024-03-08T05:36:35;23.17;;;16.23;;
305;SDS011;137;48.578;9.180;2024-03-08T05:39:02;24.07;;;16.73;;
305;SDS011;137;48.578;9.180;2024-03-08T05:41:31;25.00;;;16.83;;
305;SDS011;137;48.578;9.180;2024-03-08T05:43:58;24.80;;;17.40;;
305;SDS011;137;48.578;9.180;2024-03-08T05:46:24;20.77;;;15.63;;
305;SDS011;137;48.578;9.180;2024-03-08T05:48:53;24.47;;;15.80;;
305;SDS011;137;48.578;9.180;2024-03-08T05:51:20;21.47;;;15.03;;
305;SDS011;137;48.578;9.180;2024-03-08T05:53:47;21.53;;;16.30;;
305;SDS011;137;48.578;9.180;2024-03-08T05:56:13;25.03;;;17.73;;
305;SDS011;137;48.578;9.180;2024-03-08T05:58:40;22.13;;;15.20;;
305;SDS011;137;48.578;9.180;2024-03-08T06:01:07;22.67;;;15.20;;
305;SDS011;137;48.578;9.180;2024-03-08T06:03:37;23.23;;;14.20;;
305;SDS011;137;48.578;9.180;2024-03-08T06:06:11;21.40;;;13.93;;
305;SDS011;137;48.578;9.180;2024-03-08T06:08:38;23.00;;;14.63;;
305;SDS011;137;48.578;9.180;2024-03-08T06:11:05;22.03;;;15.53;;
305;SDS011;137;48.578;9.180;2024-03-08T06:13:32;20.73;;;15.30;;
305;SDS011;137;48.578;9.180;2024-03-08T06:15:59;22.57;;;15.33;;
305;SDS011;137;48.578;9.180;2024-03-08T06:18:26;18.70;;;14.17;;
305;SDS011;137;48.578;9.180;2024-03-08T06:20:52;21.63;;;14.93;;
305;SDS011;137;48.578;9.180;2024-03-08T06:23:22;23.37;;;14.57;;
305;SDS011;137;48.578;9.180;2024-03-08T06:25:49;20.43;;;15.13;;
305;SDS011;137;48.578;9.180;2024-03-08T06:28:15;21.33;;;17.37;;
305;SDS011;137;48.578;9.180;2024-03-08T06:30:43;22.70;;;14.43;;
305;SDS011;137;48.578;9.180;2024-03-08T06:33:10;25.60;;;16.87;;
305;SDS011;137;48.578;9.180;2024-03-08T06:35:37;19.63;;;14.63;;
305;SDS011;137;48.578;9.180;2024-03-08T06:38:04;18.77;;;14.13;;
305;SDS011;137;48.578;9.180;2024-03-08T06:40:36;16.77;;;14.90;;
305;SDS011;137;48.578;9.180;2024-03-08T06:43:03;20.92;;;16.92;;
305;SDS011;137;48.578;9.180;2024-03-08T06:45:30;19.90;;;14.60;;
305;SDS011;137;48.578;9.180;2024-03-08T06:47:57;18.70;;;14.07;;
305;SDS011;137;48.578;9.180;2024-03-08T06:50:24;20.90;;;14.00;;
305;SDS011;137;48.578;9.180;2024-03-08T06:52:51;21.20;;;14.43;;
305;SDS011;137;48.578;9.180;2024-03-08T06:55:18;20.63;;;15.27;;
305;SDS011;137;48.578;9.180;2024-03-08T06:57:47;20.90;;;15.17;;
305;SDS011;137;48.578;9.180;2024-03-08T07:00:14;20.20;;;15.07;;
305;SDS011;137;48.578;9.180;2024-03-08T07:02:45;21.30;;;14.60;;
305;SDS011;137;48.578;9.180;2024-03-08T07:05:13;20.60;;;14.63;;
305;SDS011;137;48.578;9.180;2024-03-08T07:07:41;21.90;;;15.63;;
305;SDS011;137;48.578;9.180;2024-03-08T07:10:08;22.37;;;16.33;;
305;SDS011;137;48.578;9.180;2024-03-08T07:12:36;23.30;;;18.00;;
305;SDS011;137;48.578;9.180;2024-03-08T07:15:04;20.83;;;15.50;;
305;SDS011;137;48.578;9.180;2024-03-08T07:17:32;17.77;;;13.43;;
305;SDS011;137;48.578;9.180;2024-03-08T07:20:00;16.50;;;13.37;;
305;SDS011;137;48.578;9.180;2024-03-08T07:22:32;19.10;;;15.20;;
305;SDS011;137;48.578;9.180;2024-03-08T07:24:59;23.97;;;13.77;;
305;SDS011;137;48.578;9.180;2024-03-08T07:27:45;20.07;;;13.83;;
305;SDS011;137;48.578;9.180;2024-03-08T07:30:14;19.53;;;13.87;;
305;SDS011;137;48.578;9.180;2024-03-08T07:33:03;17.80;;;13.37;;
305;SDS011;137;48.578;9.180;2024-03-08T07:35:32;18.27;;;12.60;;
305;SDS011;137;48.578;9.180;2024-03-08T07:38:01;17.83;;;13.73;;
305;SDS011;137;48.578;9.180;2024-03-08T07:40:29;18.53;;;15.30;;
305;SDS011;137;48.578;9.180;2024-03-08T07:45:23;22.27;;;15.50;;
305;SDS011;137;48.578;9.180;2024-03-08T07:47:52;14.50;;;12.30;;
305;SDS011;137;48.578;9.180;2024-03-08T07:50:18;18.10;;;12.60;;
305;SDS011;137;48.578;9.180;2024-03-08T07:52:47;14.10;;;12.30;;
305;SDS011;137;48.578;9.180;2024-03-08T07:55:14;16.90;;;12.33;;
305;SDS011;137;48.578;9.180;2024-03-08T07:57:41;13.47;;;11.63;;
305;SDS011;137;48.578;9.180;2024-03-08T08:00:08;20.37;;;15.33;;
305;SDS011;137;48.578;9.180;2024-03-08T08:02:37;18.97;;;13.07;;
305;SDS011;137;48.578;9.180;2024-03-08T08:05:04;17.93;;;13.03;;
305;SDS011;137;48.578;9.180;2024-03-08T08:07:31;17.83;;;13.10;;
305;SDS011;137;48.578;9.180;2024-03-08T08:09:58;17.77;;;12.70;;
305;SDS011;137;48.578;9.180;2024-03-08T08:12:25;17.90;;;13.00;;
305;SDS011;137;48.578;9.180;2024-03-08T08:14:54;27.27;;;13.07;;
305;SDS011;137;48.578;9.180;2024-03-08T08:17:21;17.23;;;13.43;;
305;SDS011;137;48.578;9.180;2024-03-08T08:19:49;16.87;;;13.00;;
305;SDS011;137;48.578;9.180;2024-03-08T08:22:16;15.57;;;11.33;;
305;SDS011;137;48.578;9.180;2024-03-08T08:24:43;16.17;;;12.40;;
305;SDS011;137;48.578;9.180;2024-03-08T08:27:10;17.90;;;13.10;;
305;SDS011;137;48.578;9.180;2024-03-08T08:29:37;14.63;;;12.37;;
305;SDS011;137;48.578;9.180;2024-03-08T08:32:05;22.40;;;11.90;;
305;SDS011;137;48.578;9.180;2024-03-08T08:34:31;15.63;;;12.33;;
305;SDS011;137;48.578;9.180;2024-03-08T08:37:00;14.17;;;11.10;;
305;SDS011;137;48.578;9.180;2024-03-08T08:39:25;16.23;;;12.20;;
305;SDS011;137;48.578;9.180;2024-03-08T08:41:52;15.90;;;12.90;;
305;SDS011;137;48.578;9.180;2024-03-08T08:44:19;14.30;;;12.03;;
305;SDS011;137;48.578;9.180;2024-03-08T08:46:46;14.57;;;11.80;;
305;SDS011;137;48.578;9.180;2024-03-08T08:49:13;14.03;;;11.60;;
305;SDS011;137;48.578;9.180;2024-03-08T08:51:41;17.60;;;13.17;;
305;SDS011;137;48.578;9.180;2024-03-08T08:54:09;18.93;;;13.80;;
305;SDS011;137;48.578;9.180;2024-03-08T08:56:36;16.70;;;12.10;;
305;SDS011;137;48.578;9.180;2024-03-08T08:59:03;14.87;;;11.97;;
305;SDS011;137;48.578;9.180;2024-03-08T09:01:30;20.40;;;14.83;;
305;SDS011;137;48.578;9.180;2024-03-08T09:03:58;16.03;;;12.90;;
305;SDS011;137;48.578;9.180;2024-03-08T09:06:24;14.97;;;12.50;;
305;SDS011;137;48.578;9.180;2024-03-08T09:08:51;14.93;;;12.20;;
305;SDS011;137;48.578;9.180;2024-03-08T09:11:19;16.57;;;11.93;;
305;SDS011;137;48.578;9.180;2024-03-08T09:13:46;14.53;;;11.47;;
305;SDS011;137;48.578;9.180;2024-03-08T09:16:14;12.07;;;9.50;;
305;SDS011;137;48.578;9.180;2024-03-08T09:18:41;17.10;;;13.27;;
305;SDS011;137;48.578;9.180;2024-03-08T09:21:07;17.00;;;11.83;;
305;SDS011;137;48.578;9.180;2024-03-08T09:23:35;13.27;;;10.17;;
305;SDS011;137;48.578;9.180;2024-03-08T09:26:01;14.77;;;11.50;;
305;SDS011;137;48.578;9.180;2024-03-08T09:28:30;13.33;;;9.70;;
305;SDS011;137;48.578;9.180;2024-03-08T09:30:57;12.60;;;11.23;;
305;SDS011;137;48.578;9.180;2024-03-08T09:33:26;16.07;;;13.03;;
305;SDS011;137;48.578;9.180;2024-03-08T09:35:54;11.40;;;10.20;;
305;SDS011;137;48.578;9.180;2024-03-08T09:38:22;12.40;;;9.90;;
305;SDS011;137;48.578;9.180;2024-03-08T09:40:50;13.43;;;10.37;;
305;SDS011;137;48.578;9.180;2024-03-08T09:43:18;12.97;;;10.97;;
305;SDS011;137;48.578;9.180;2024-03-08T09:45:46;12.57;;;10.83;;
305;SDS011;137;48.578;9.180;2024-03-08T09:48:16;13.37;;;10.47;;
305;SDS011;137;48.578;9.180;2024-03-08T09:50:45;14.20;;;9.57;;
305;SDS011;137;48.578;9.180;2024-03-08T09:53:13;11.50;;;9.13;;
305;SDS011;137;48.578;9.180;2024-03-08T09:55:40;12.50;;;10.97;;
305;SDS011;137;48.578;9.180;2024-03-08T09:58:10;12.33;;;10.70;;
305;SDS011;137;48.578;9.180;2024-03-08T10:01:15;15.10;;;11.27;;
305;SDS011;137;48.578;9.180;2024-03-08T10:03:43;12.73;;;10.60;;
305;SDS011;137;48.578;9.180;2024-03-08T10:06:10;15.10;;;11.00;;
305;SDS011;137;48.578;9.180;2024-03-08T10:08:37;17.27;;;11.40;;
305;SDS011;137;48.578;9.180;2024-03-08T10:11:04;12.90;;;9.83;;
305;SDS011;137;48.578;9.180;2024-03-08T10:13:31;14.53;;;12.10;;
305;SDS011;137;48.578;9.180;2024-03-08T10:15:58;12.47;;;10.60;;
305;SDS011;137;48.578;9.180;2024-03-08T10:18:27;13.00;;;11.10;;
305;SDS011;137;48.578;9.180;2024-03-08T10:21:04;15.80;;;12.00;;
305;SDS011;137;48.578;9.180;2024-03-08T10:23:33;13.60;;;10.50;;
305;SDS011;137;48.578;9.180;2024-03-08T10:26:13;12.53;;;11.23;;
305;SDS011;137;48.578;9.180;2024-03-08T10:28:41;15.03;;;10.57;;
305;SDS011;137;48.578;9.180;2024-03-08T10:31:09;14.37;;;11.30;;
305;SDS011;137;48.578;9.180;2024-03-08T10:33:37;12.60;;;11.07;;
305;SDS011;137;48.578;9.180;2024-03-08T10:36:05;15.43;;;11.60;;
305;SDS011;137;48.578;9.180;2024-03-08T10:38:33;12.70;;;10.57;;
305;SDS011;137;48.578;9.180;2024-03-08T10:41:03;11.63;;;9.60;;
305;SDS011;137;48.578;9.180;2024-03-08T10:43:31;16.33;;;11.40;;
305;SDS011;137;48.578;9.180;2024-03-08T10:46:14;13.50;;;10.77;;
305;SDS011;137;48.578;9.180;2024-03-08T10:48:49;14.00;;;10.40;;
305;SDS011;137;48.578;9.180;2024-03-08T10:51:21;13.83;;;10.37;;
305;SDS011;137;48.578;9.180;2024-03-08T10:53:48;13.20;;;10.30;;
305;SDS011;137;48.578;9.180;2024-03-08T10:56:17;12.80;;;11.50;;
305;SDS011;137;48.578;9.180;2024-03-08T10:58:43;12.80;;;10.97;;
305;SDS011;137;48.578;9.180;2024-03-08T11:01:11;12.43;;;9.00;;
305;SDS011;137;48.578;9.180;2024-03-08T11:03:44;15.60;;;9.47;;
305;SDS011;137;48.578;9.180;2024-03-08T11:06:15;12.57;;;10.03;;
305;SDS011;137;48.578;9.180;2024-03-08T11:08:43;13.53;;;11.10;;
305;SDS011;137;48.578;9.180;2024-03-08T11:11:23;11.50;;;10.30;;
305;SDS011;137;48.578;9.180;2024-03-08T11:13:55;12.03;;;10.73;;
305;SDS011;137;48.578;9.180;2024-03-08T11:16:37;13.77;;;10.50;;
305;SDS011;137;48.578;9.180;2024-03-08T11:19:23;14.40;;;10.10;;
305;SDS011;137;48.578;9.180;2024-03-08T11:22:00;14.13;;;10.57;;
305;SDS011;137;48.578;9.180;2024-03-08T11:24:28;12.87;;;10.90;;
305;SDS011;137;48.578;9.180;2024-03-08T11:27:05;14.13;;;10.97;;
305;SDS011;137;48.578;9.180;2024-03-08T11:29:35;13.07;;;10.73;;
305;SDS011;137;48.578;9.180;2024-03-08T11:32:05;10.90;;;9.43;;
305;SDS011;137;48.578;9.180;2024-03-08T11:34:35;11.87;;;9.87;;
305;SDS011;137;48.578;9.180;2024-03-08T11:37:08;11.77;;;10.07;;
305;SDS011;137;48.578;9.180;2024-03-08T11:39:39;11.70;;;10.50;;
305;SDS011;137;48.578;9.180;2024-03-08T11:42:06;12.00;;;10.90;;
305;SDS011;137;48.578;9.180;2024-03-08T11:44:35;12.27;;;10.77;;
305;SDS011;137;48.578;9.180;2024-03-08T11:47:02;11.73;;;10.50;;
305;SDS011;137;48.578;9.180;2024-03-08T11:49:35;12.77;;;10.73;;
305;SDS011;137;48.578;9.180;2024-03-08T11:52:02;12.67;;;10.40;;
305;SDS011;137;48.578;9.180;2024-03-08T11:54:31;14.70;;;11.83;;
305;SDS011;137;48.578;9.180;2024-03-08T11:56:59;14.13;;;10.30;;
305;SDS011;137;48.578;9.180;2024-03-08T11:59:27;13.93;;;11.60;;
305;SDS011;137;48.578;9.180;2024-03-08T12:02:01;15.53;;;10.83;;
305;SDS011;137;48.578;9.180;2024-03-08T12:04:29;12.20;;;9.37;;
305;SDS011;137;48.578;9.180;2024-03-08T12:06:57;12.80;;;10.20;;
305;SDS011;137;48.578;9.180;2024-03-08T12:09:27;13.20;;;11.77;;
305;SDS011;137;48.578;9.180;2024-03-08T12:11:55;15.47;;;12.33;;
305;SDS011;137;48.578;9.180;2024-03-08T12:14:24;13.57;;;12.10;;
305;SDS011;137;48.578;9.180;2024-03-08T12:16:51;17.20;;;13.07;;
305;SDS011;137;48.578;9.180;2024-03-08T12:19:18;14.77;;;11.07;;
305;SDS011;137;48.578;9.180;2024-03-08T12:21:45;13.97;;;9.47;;
305;SDS011;137;48.578;9.180;2024-03-08T12:24:14;16.10;;;12.37;;
305;SDS011;137;48.578;9.180;2024-03-08T12:26:44;13.03;;;11.73;;
305;SDS011;137;48.578;9.180;2024-03-08T12:29:21;13.80;;;11.27;;
305;SDS011;137;48.578;9.180;2024-03-08T12:31:52;13.23;;;11.70;;
305;SDS011;137;48.578;9.180;2024-03-08T12:34:20;14.07;;;11.23;;
305;SDS011;137;48.578;9.180;2024-03-08T12:36:47;12.83;;;10.47;;
305;SDS011;137;48.578;9.180;2024-03-08T12:39:17;14.50;;;11.47;;
305;SDS011;137;48.578;9.180;2024-03-08T12:41:47;12.50;;;10.90;;
305;SDS011;137;48.578;9.180;2024-03-08T12:44:16;13.10;;;10.90;;
305;SDS011;137;48.578;9.180;2024-03-08T12:46:45;12.33;;;11.03;;
305;SDS011;137;48.578;9.180;2024-03-08T12:49:13;13.90;;;12.33;;
305;SDS011;137;48.578;9.180;2024-03-08T12:51:42;14.83;;;12.00;;
305;SDS011;137;48.578;9.180;2024-03-08T12:54:10;12.63;;;10.60;;
305;SDS011;137;48.578;9.180;2024-03-08T12:56:37;14.07;;;11.37;;
305;SDS011;137;48.578;9.180;2024-03-08T12:59:05;13.87;;;10.43;;
305;SDS011;137;48.578;9.180;2024-03-08T13:01:33;12.90;;;10.73;;
305;SDS011;137;48.578;9.180;2024-03-08T13:04:04;12.50;;;10.43;;
305;SDS011;137;48.578;9.180;2024-03-08T13:06:31;12.93;;;10.10;;
305;SDS011;137;48.578;9.180;2024-03-08T13:08:59;11.17;;;10.07;;
305;SDS011;137;48.578;9.180;2024-03-08T13:11:30;12.23;;;10.93;;
305;SDS011;137;48.578;9.180;2024-03-08T13:14:01;14.83;;;11.60;;
305;SDS011;137;48.578;9.180;2024-03-08T13:16:28;14.30;;;11.50;;
305;SDS011;137;48.578;9.180;2024-03-08T13:18:55;14.90;;;11.30;;
305;SDS011;137;48.578;9.180;2024-03-08T13:21:24;17.47;;;13.13;;
305;SDS011;137;48.578;9.180;2024-03-08T13:23:50;14.43;;;12.50;;
305;SDS011;137;48.578;9.180;2024-03-08T13:26:18;12.03;;;10.10;;
305;SDS011;137;48.578;9.180;2024-03-08T13:28:45;13.23;;;11.93;;
305;SDS011;137;48.578;9.180;2024-03-08T13:31:13;14.07;;;10.57;;
305;SDS011;137;48.578;9.180;2024-03-08T13:33:40;12.93;;;10.63;;
305;SDS011;137;48.578;9.180;2024-03-08T13:36:11;13.43;;;11.00;;
305;SDS011;137;48.578;9.180;2024-03-08T13:38:43;12.43;;;11.20;;
305;SDS011;137;48.578;9.180;2024-03-08T13:41:10;13.03;;;10.97;;
305;SDS011;137;48.578;9.180;2024-03-08T13:43:39;14.37;;;12.27;;
305;SDS011;137;48.578;9.180;2024-03-08T13:46:06;15.43;;;12.80;;
305;SDS011;137;48.578;9.180;2024-03-08T13:48:35;17.20;;;11.07;;
305;SDS011;137;48.578;9.180;2024-03-08T13:51:02;15.10;;;11.20;;
305;SDS011;137;48.578;9.180;2024-03-08T13:53:29;13.40;;;11.07;;
305;SDS011;137;48.578;9.180;2024-03-08T13:55:59;13.57;;;11.40;;
305;SDS011;137;48.578;9.180;2024-03-08T13:58:25;14.60;;;11.83;;
305;SDS011;137;48.578;9.180;2024-03-08T14:00:52;20.20;;;13.07;;
305;SDS011;137;48.578;9.180;2024-03-08T14:03:20;16.58;;;12.95;;
305;SDS011;137;48.578;9.180;2024-03-08T14:05:47;14.47;;;12.10;;
305;SDS011;137;48.578;9.180;2024-03-08T14:08:14;14.13;;;11.90;;
305;SDS011;137;48.578;9.180;2024-03-08T14:10:42;16.17;;;11.80;;
305;SDS011;137;48.578;9.180;2024-03-08T14:13:13;15.13;;;11.67;;
305;SDS011;137;48.578;9.180;2024-03-08T14:15:41;13.30;;;11.50;;
305;SDS011;137;48.578;9.180;2024-03-08T14:18:09;13.03;;;11.63;;
305;SDS011;137;48.578;9.180;2024-03-08T14:20:38;12.43;;;10.60;;
305;SDS011;137;48.578;9.180;2024-03-08T14:23:04;11.70;;;9.90;;
305;SDS011;137;48.578;9.180;2024-03-08T14:25:33;16.50;;;12.40;;
305;SDS011;137;48.578;9.180;2024-03-08T14:28:00;15.80;;;12.30;;
305;SDS011;137;48.578;9.180;2024-03-08T14:30:30;14.30;;;10.33;;
305;SDS011;137;48.578;9.180;2024-03-08T14:33:03;15.57;;;11.90;;
305;SDS011;137;48.578;9.180;2024-03-08T14:35:34;12.63;;;11.10;;
305;SDS011;137;48.578;9.180;2024-03-08T14:38:01;15.20;;;11.30;;
305;SDS011;137;48.578;9.180;2024-03-08T14:40:28;15.83;;;12.83;;
305;SDS011;137;48.578;9.180;2024-03-08T14:45:20;15.07;;;11.67;;
305;SDS011;137;48.578;9.180;2024-03-08T14:47:50;11.57;;;10.10;;
305;SDS011;137;48.578;9.180;2024-03-08T14:50:17;11.90;;;10.43;;
305;SDS011;137;48.578;9.180;2024-03-08T14:52:44;13.23;;;11.23;;
305;SDS011;137;48.578;9.180;2024-03-08T14:55:13;16.90;;;12.70;;
305;SDS011;137;48.578;9.180;2024-03-08T14:57:40;14.80;;;11.50;;
305;SDS011;137;48.578;9.180;2024-03-08T15:00:11;15.30;;;10.87;;
305;SDS011;137;48.578;9.180;2024-03-08T15:02:43;12.80;;;10.40;;
305;SDS011;137;48.578;9.180;2024-03-08T15:05:13;16.03;;;11.07;;
305;SDS011;137;48.578;9.180;2024-03-08T15:07:46;16.23;;;11.53;;
305;SDS011;137;48.578;9.180;2024-03-08T15:10:14;14.37;;;11.07;;
305;SDS011;137;48.578;9.180;2024-03-08T15:12:41;13.90;;;10.90;;
305;SDS011;137;48.578;9.180;2024-03-08T15:15:11;12.77;;;10.10;;
305;SDS011;137;48.578;9.180;2024-03-08T15:17:39;14.33;;;9.70;;
305;SDS011;137;48.578;9.180;2024-03-08T15:20:07;14.70;;;11.70;;
305;SDS011;137;48.578;9.180;2024-03-08T15:22:42;14.73;;;11.37;;
305;SDS011;137;48.578;9.180;2024-03-08T15:25:09;15.43;;;11.33;;
305;SDS011;137;48.578;9.180;2024-03-08T15:27:42;13.17;;;11.60;;
305;SDS011;137;48.578;9.180;2024-03-08T15:30:09;14.80;;;11.13;;